Time;durP1;ratioP1;P1;durP2;ratioP2;P2;SDS_P1;SDS_P2;PMS_P1;PMS_P2;Temp;Humidity;BMP_temperature;BMP_pressure;BME280_temperature;BME280_humidity;BME280_pressure;Samples;Min_cycle;Max_cycle;Signal;HPM_P1;HPM_P2
2022/01/18 00:01:57;;;;;;;1.97;1.63;;;;;;;3.32;100.00;61161.25;5072415;28;20521;-74
2022/01/18 00:04:35;;;;;;;1.60;1.50;;;;;;;3.34;100.00;61158.34;5072050;28;20457;-75
2022/01/18 00:07:03;;;;;;;3.70;1.40;;;;;;;3.29;100.00;61158.06;5072029;28;20439;-75
2022/01/18 00:09:30;;;;;;;2.60;1.40;;;;;;;2.80;100.00;61104.00;5072217;28;20431;-73
2022/01/18 00:12:10;;;;;;;1.60;1.40;;;;;;;3.29;100.00;61158.06;5079478;28;20504;-75
2022/01/18 00:14:54;;;;;;;2.30;2.00;;;;;;;3.31;100.00;61155.16;5073939;28;20587;-75
2022/01/18 00:17:40;;;;;;;2.90;1.70;;;;;;;3.32;100.00;61156.75;5072117;28;20449;-74
2022/01/18 00:20:17;;;;;;;3.00;2.00;;;;;;;3.30;100.00;61157.13;5072261;28;20456;-74
2022/01/18 00:22:44;;;;;;;3.13;2.13;;;;;;;3.25;100.00;61148.78;5073134;28;20446;-74
2022/01/18 00:25:12;;;;;;;2.40;1.97;;;;;;;2.93;100.00;61127.34;5071899;28;20785;-74
2022/01/18 00:27:40;;;;;;;2.57;2.23;;;;;;;3.34;100.00;61163.91;5070571;28;21010;-75
2022/01/18 00:30:30;;;;;;;4.27;2.60;;;;;;;3.35;100.00;61159.41;5071576;28;20521;-75
2022/01/18 00:33:13;;;;;;;4.17;2.57;;;;;;;3.21;100.00;61142.53;5071567;28;20529;-74
2022/01/18 00:35:43;;;;;;;2.47;2.10;;;;;;;2.27;100.00;61045.72;5071359;28;20509;-77
2022/01/18 00:40:52;;;;;;;4.37;2.57;;;;;;;3.43;100.00;61167.91;5075264;28;20438;-74
2022/01/18 00:43:24;;;;;;;3.47;2.63;;;;;;;3.49;100.00;61176.81;5075739;28;20442;-75
2022/01/18 00:45:53;;;;;;;3.53;2.50;;;;;;;3.44;100.00;61174.03;5075386;28;21004;-75
2022/01/18 00:48:32;;;;;;;4.03;3.07;;;;;;;3.15;100.00;61138.16;5075013;28;21023;-74
2022/01/18 00:51:00;;;;;;;4.43;2.90;;;;;;;3.56;100.00;61181.75;5075129;28;20455;-72
2022/01/18 00:53:39;;;;;;;4.23;2.73;;;;;;;3.42;100.00;61167.38;5074728;28;20455;-75
2022/01/18 00:56:18;;;;;;;3.70;2.90;;;;;;;3.62;100.00;61193.16;5075780;28;20837;-74
2022/01/18 00:58:49;;;;;;;4.70;2.67;;;;;;;3.59;100.00;61184.94;5075210;28;20449;-74
2022/01/18 01:01:25;;;;;;;4.70;3.03;;;;;;;3.57;100.00;61189.81;5074554;28;20493;-76
2022/01/18 01:04:02;;;;;;;4.63;2.70;;;;;;;3.65;100.00;61193.81;5074647;28;20478;-74
2022/01/18 01:06:30;;;;;;;3.97;2.90;;;;;;;3.76;100.00;61205.00;5075318;28;20469;-73
2022/01/18 01:09:01;;;;;;;6.37;3.07;;;;;;;2.49;100.00;61074.13;5074790;28;20555;-74
2022/01/18 01:11:29;;;;;;;12.60;3.57;;;;;;;3.38;100.00;61165.66;5073339;28;20475;-75
2022/01/18 01:14:00;;;;;;;6.87;3.67;;;;;;;2.76;100.00;61101.75;5074379;28;20457;-76
2022/01/18 01:47:33;;;;;;;3.97;2.87;;;;;;;1.43;100.00;60961.56;5081720;28;20445;-74
2022/01/18 01:52:48;;;;;;;4.70;2.60;;;;;;;0.69;100.00;60879.13;5074228;28;20443;-77
2022/01/18 01:55:19;;;;;;;4.00;2.70;;;;;;;1.38;100.00;60954.28;5074349;28;20475;-75
2022/01/18 01:57:49;;;;;;;3.97;2.83;;;;;;;-0.03;100.00;60807.81;5074320;28;20454;-74
2022/01/18 02:00:24;;;;;;;4.30;3.10;;;;;;;0.15;100.00;60821.91;5072956;28;20521;-75
2022/01/18 02:02:52;;;;;;;4.80;2.90;;;;;;;0.07;100.00;60815.38;5073947;28;20536;-75
2022/01/18 02:05:22;;;;;;;4.53;2.83;;;;;;;1.49;100.00;60968.47;5072679;28;20998;-76
2022/01/18 02:07:55;;;;;;;4.70;3.20;;;;;;;1.52;100.00;60961.06;5072855;28;20477;-74
2022/01/18 02:10:24;;;;;;;4.27;2.90;;;;;;;1.49;100.00;60962.94;5073940;28;20504;-75
2022/01/18 02:12:56;;;;;;;2.90;2.47;;;;;;;1.51;100.00;60970.59;5073533;28;20438;-76
2022/01/18 02:15:26;;;;;;;5.50;3.10;;;;;;;0.31;100.00;60843.84;5074351;28;20454;-77
2022/01/18 02:23:31;;;;;;;4.37;2.50;;;;;;;1.13;100.00;60924.72;5042553;28;20891;-78
2022/01/18 02:26:02;;;;;;;2.67;1.53;;;;;;;1.51;100.00;60970.06;5073352;28;20488;-76
2022/01/18 02:28:30;;;;;;;2.37;1.53;;;;;;;1.10;100.00;60931.56;5073291;28;20521;-75
2022/01/18 02:30:58;;;;;;;2.07;1.40;;;;;;;-0.32;100.00;60772.13;5072974;28;20439;-76
2022/01/18 02:36:29;;;;;;;1.33;1.23;;;;;;;1.33;100.00;60945.94;5072839;28;20525;-76
2022/01/18 02:41:41;;;;;;;1.33;1.00;;;;;;;-0.62;100.00;60742.84;5072947;28;20504;-77
2022/01/18 02:44:14;;;;;;;1.57;1.00;;;;;;;0.35;100.00;60848.09;5072782;28;20447;-75
2022/01/18 02:46:49;;;;;;;3.73;1.40;;;;;;;0.92;100.00;60907.47;5072941;28;20504;-76
2022/01/18 02:49:17;;;;;;;1.50;1.10;;;;;;;-0.04;100.00;60809.28;5072933;28;20991;-76
2022/01/18 02:51:47;;;;;;;2.47;1.40;;;;;;;0.12;100.00;60818.19;5072472;28;21051;-75
2022/01/18 02:54:17;;;;;;;1.37;1.00;;;;;;;0.54;100.00;60862.69;5073354;28;20484;-75
2022/01/18 02:56:53;;;;;;;1.07;0.97;;;;;;;0.62;100.00;60871.72;5072636;28;20486;-76
2022/01/18 02:59:31;;;;;;;1.10;0.70;;;;;;;0.59;100.00;60873.53;5073082;28;20431;-74
2022/01/18 03:07:35;;;;;;;2.60;1.30;;;;;;;-0.06;100.00;60802.16;5071943;28;20442;-76
2022/01/18 03:10:10;;;;;;;1.73;1.03;;;;;;;0.35;100.00;60843.09;5072597;28;20482;-74
2022/01/18 03:12:42;;;;;;;3.33;1.20;;;;;;;0.46;100.00;60859.75;5072056;28;20450;-77
2022/01/18 03:15:20;;;;;;;2.13;1.10;;;;;;;-0.27;100.00;60787.41;5072250;28;20945;-75
2022/01/18 03:17:48;;;;;;;1.97;1.27;;;;;;;-0.65;100.00;60747.16;5072186;28;20517;-74
2022/01/18 03:20:19;;;;;;;1.63;1.10;;;;;;;-0.37;100.00;60771.81;5072036;28;20504;-74
2022/01/18 03:22:56;;;;;;;1.70;0.97;;;;;;;0.24;100.00;60836.44;5072116;28;20481;-76
2022/01/18 03:25:29;;;;;;;1.60;0.87;;;;;;;0.09;100.00;60820.53;5072396;28;20430;-74
2022/01/18 03:28:04;;;;;;;2.20;1.37;;;;;;;-1.07;100.00;60693.78;5072692;28;20488;-76
2022/01/18 03:30:32;;;;;;;3.67;1.47;;;;;;;0.15;100.00;60826.91;5072350;28;20473;-75
2022/01/18 03:33:05;;;;;;;2.80;1.50;;;;;;;0.11;100.00;60819.63;5071084;28;20450;-74
2022/01/18 03:35:34;;;;;;;2.53;1.40;;;;;;;-1.16;100.00;60684.25;5072823;28;20536;-77
2022/01/18 03:38:07;;;;;;;1.67;1.30;;;;;;;-0.07;100.00;60803.59;5072183;28;20488;-76
2022/01/18 03:40:38;;;;;;;2.57;1.43;;;;;;;-1.08;100.00;60700.22;5070937;28;20435;-75
2022/01/18 03:43:10;;;;;;;1.60;1.00;;;;;;;0.05;100.00;60813.81;5070843;28;20534;-76
2022/01/18 03:45:41;;;;;;;3.07;1.20;;;;;;;-0.13;100.00;60797.78;5072112;28;20865;-74
2022/01/18 03:48:17;;;;;;;2.13;1.30;;;;;;;-1.57;100.00;60638.41;5071773;28;20453;-74
2022/01/18 03:50:46;;;;;;;7.77;1.40;;;;;;;0.21;100.00;60833.25;5071887;28;21042;-75
2022/01/18 03:53:20;;;;;;;3.13;1.43;;;;;;;0.13;100.00;60822.28;5072075;28;20458;-76
2022/01/18 03:55:53;;;;;;;1.40;1.30;;;;;;;0.09;100.00;60818.03;5075509;28;20439;-73
2022/01/18 03:58:26;;;;;;;1.40;1.10;;;;;;;0.01;100.00;60812.06;5076495;28;20533;-75
2022/01/18 04:00:57;;;;;;;3.73;1.13;;;;;;;0.03;100.00;60813.66;5072565;28;20576;-74
2022/01/18 04:03:24;;;;;;;2.50;1.30;;;;;;;0.09;100.00;60825.00;5072424;28;20503;-74
2022/01/18 04:05:59;;;;;;;2.53;1.40;;;;;;;-0.02;100.00;60803.91;5070907;28;20434;-76
2022/01/18 04:08:29;;;;;;;1.80;1.27;;;;;;;-0.01;100.00;60809.94;5071534;28;20501;-73
2022/01/18 04:10:58;;;;;;;2.67;1.40;;;;;;;-0.07;100.00;60804.13;5071468;28;20454;-75
2022/01/18 04:13:27;;;;;;;1.37;1.07;;;;;;;-1.48;100.00;60655.41;5072379;28;20439;-75
2022/01/18 04:15:56;;;;;;;1.57;1.37;;;;;;;-1.36;100.00;60670.06;5076002;28;20438;-74
2022/01/18 04:18:30;;;;;;;2.60;1.20;;;;;;;-1.37;100.00;60677.03;5075887;28;20450;-75
2022/01/18 04:29:18;;;;;;;1.70;1.07;;;;;;;-0.43;100.00;60766.00;5075366;28;20508;-77
2022/01/18 04:31:45;;;;;;;1.60;1.20;;;;;;;-0.68;100.00;60744.53;5075434;28;20442;-75
2022/01/18 04:34:13;;;;;;;1.70;1.33;;;;;;;-0.05;100.00;60805.72;5075316;28;20481;-76
2022/01/18 04:37:16;;;;;;;1.77;0.93;;;;;;;-0.39;100.00;60770.22;5075551;28;20441;-75
2022/01/18 04:39:48;;;;;;;2.27;1.50;;;;;;;0.03;100.00;60811.69;5076163;28;20426;-75
2022/01/18 04:42:30;;;;;;;4.03;1.50;;;;;;;-0.10;100.00;60795.41;5076032;28;20519;-75
2022/01/18 04:50:23;;;;;;;2.73;1.30;;;;;;;-1.60;100.00;60640.22;5075149;28;20485;-75
2022/01/18 04:52:53;;;;;;;2.03;1.40;;;;;;;-0.79;100.00;60727.88;5075292;28;21064;-75
2022/01/18 04:55:37;;;;;;;3.43;1.60;;;;;;;-0.11;100.00;60802.41;5075125;28;20430;-75
2022/01/18 04:58:04;;;;;;;3.60;1.60;;;;;;;-0.48;100.00;60757.69;5074788;28;20438;-76
2022/01/18 05:00:33;;;;;;;2.30;1.37;;;;;;;-1.62;100.00;60640.59;5074730;28;20442;-75
2022/01/18 05:03:06;;;;;;;1.70;1.10;;;;;;;-1.91;100.00;60610.44;5074945;28;20438;-76
2022/01/18 05:05:38;;;;;;;3.47;1.33;;;;;;;-0.18;100.00;60781.94;5075533;28;20435;-76
2022/01/18 05:08:13;;;;;;;1.23;0.87;;;;;;;0.04;100.00;60815.25;5075128;28;20483;-77
2022/01/18 05:10:54;;;;;;;1.90;1.10;;;;;;;0.05;100.00;60811.31;5075136;28;20445;-75
2022/01/18 05:13:46;;;;;;;2.00;1.50;;;;;;;-1.21;100.00;60683.44;5075158;28;20446;-75
2022/01/18 05:19:25;;;;;;;3.43;1.70;;;;;;;-0.02;100.00;60806.41;5032769;28;20444;-74
2022/01/18 05:24:40;;;;;;;5.83;1.57;;;;;;;-0.31;100.00;60780.69;5059392;28;20442;-77
2022/01/18 05:27:12;;;;;;;2.10;1.30;;;;;;;-1.25;100.00;60684.75;5075068;28;20478;-75
2022/01/18 05:29:39;;;;;;;5.73;1.63;;;;;;;-0.11;100.00;60796.84;5074456;28;20478;-75
2022/01/18 05:32:08;;;;;;;2.37;1.60;;;;;;;-0.08;100.00;60802.53;5074501;28;20458;-75
2022/01/18 05:34:39;;;;;;;2.90;1.60;;;;;;;-0.42;100.00;60766.53;5073851;28;20539;-77
2022/01/18 05:37:09;;;;;;;4.23;1.60;;;;;;;-0.01;100.00;60804.94;5074444;28;20435;-75
2022/01/18 05:39:38;;;;;;;4.57;1.50;;;;;;;-0.21;100.00;60788.75;5072905;28;20957;-76
2022/01/18 05:42:15;;;;;;;1.93;1.30;;;;;;;-0.20;100.00;60785.34;5074252;28;20446;-76
2022/01/18 05:44:42;;;;;;;2.70;1.80;;;;;;;0.03;100.00;60808.66;5073929;28;20445;-75
2022/01/18 05:47:09;;;;;;;4.37;2.80;;;;;;;-0.43;100.00;60767.97;5074016;28;20473;-75
2022/01/18 05:49:41;;;;;;;2.67;1.77;;;;;;;0.00;100.00;60811.53;5073839;28;20964;-76
2022/01/18 05:52:09;;;;;;;2.60;1.77;;;;;;;0.03;100.00;60813.66;5073922;28;21051;-74
2022/01/18 05:54:38;;;;;;;2.63;1.70;;;;;;;-1.39;100.00;60674.91;5073607;28;21027;-75
2022/01/18 05:57:08;;;;;;;6.17;2.23;;;;;;;-0.95;100.00;60711.47;5074282;28;21025;-74
2022/01/18 05:59:39;;;;;;;4.00;1.90;;;;;;;-0.03;100.00;60807.81;5073664;28;20799;-76
2022/01/18 06:02:16;;;;;;;4.17;1.80;;;;;;;0.03;100.00;60811.69;5073721;28;20446;-75
2022/01/18 06:07:31;;;;;;;4.23;1.80;;;;;;;-1.19;100.00;60690.56;5078187;28;20426;-75
2022/01/18 06:10:00;;;;;;;2.57;1.63;;;;;;;-0.04;100.00;60804.78;5073670;28;21097;-76
2022/01/18 06:12:32;;;;;;;5.07;3.00;;;;;;;0.06;100.00;60816.84;5074274;28;20470;-76
2022/01/18 06:15:01;;;;;;;3.73;1.70;;;;;;;-0.11;100.00;60799.88;5074509;28;20450;-76
2022/01/18 06:17:29;;;;;;;1.93;1.50;;;;;;;0.22;100.00;60833.78;5073817;28;20442;-75
2022/01/18 06:19:58;;;;;;;2.50;1.60;;;;;;;-0.03;100.00;60812.84;5073417;28;20458;-75
2022/01/18 06:22:29;;;;;;;4.87;2.63;;;;;;;-0.22;100.00;60783.22;5073377;28;20458;-76
2022/01/18 06:24:57;;;;;;;4.87;2.10;;;;;;;1.72;100.00;60992.34;5073911;28;20500;-74
2022/01/18 06:27:26;;;;;;;3.67;2.37;;;;;;;0.30;100.00;60842.28;5073251;28;21015;-74
2022/01/18 06:30:10;;;;;;;4.57;2.20;;;;;;;2.38;100.00;61062.41;5073082;28;20474;-75
2022/01/18 06:32:38;;;;;;;4.10;2.17;;;;;;;2.43;100.00;61067.75;5073272;28;20883;-74
2022/01/18 06:35:12;;;;;;;5.57;2.17;;;;;;;1.22;100.00;60944.84;5073049;28;20474;-76
2022/01/18 06:37:41;;;;;;;2.10;1.60;;;;;;;1.69;100.00;60991.69;5072896;28;20492;-74
2022/01/18 06:40:11;;;;;;;4.80;2.20;;;;;;;1.83;100.00;61003.50;5072702;28;20538;-75
2022/01/18 06:42:39;;;;;;;3.23;2.30;;;;;;;1.40;100.00;60958.38;5073235;28;20477;-77
2022/01/18 06:45:10;;;;;;;2.70;2.13;;;;;;;1.26;100.00;60943.53;5072737;28;20523;-75
2022/01/18 06:47:43;;;;;;;3.70;1.83;;;;;;;2.87;100.00;61118.44;5072798;28;20453;-75
2022/01/18 06:50:11;;;;;;;3.00;2.13;;;;;;;2.43;100.00;61067.75;5072691;28;20478;-75
2022/01/18 06:52:39;;;;;;;3.47;2.23;;;;;;;3.98;100.00;61231.47;5072924;28;20522;-75
2022/01/18 06:55:11;;;;;;;4.20;2.03;;;;;;;4.12;100.00;61245.81;5072800;28;20957;-73
2022/01/18 06:57:46;;;;;;;2.60;1.80;;;;;;;3.48;100.00;61178.28;5071386;28;20442;-77
2022/01/18 07:00:17;;;;;;;5.97;2.77;;;;;;;2.75;100.00;61103.19;5072770;28;20531;-75
2022/01/18 07:02:45;;;;;;;6.23;3.30;;;;;;;4.27;100.00;61262.31;5072572;28;20949;-74
2022/01/18 07:05:13;;;;;;;3.50;2.40;;;;;;;3.75;100.00;61204.47;5072769;28;20446;-76
2022/01/18 07:07:41;;;;;;;4.40;2.93;;;;;;;3.71;100.00;61200.22;5072342;28;20450;-75
2022/01/18 07:10:12;;;;;;;3.77;2.40;;;;;;;3.83;100.00;61215.50;5072252;28;20569;-76
2022/01/18 07:12:40;;;;;;;5.90;2.77;;;;;;;4.02;100.00;61235.72;5072147;28;20442;-75
2022/01/18 07:15:12;;;;;;;5.67;2.30;;;;;;;2.15;100.00;61038.00;5070763;28;20438;-75
2022/01/18 07:17:57;;;;;;;6.03;2.37;;;;;;;3.37;100.00;61166.56;5072542;28;20442;-74
2022/01/18 07:23:13;;;;;;;6.57;2.80;;;;;;;3.13;100.00;61136.03;5072175;28;20451;-76
2022/01/18 07:25:43;;;;;;;5.63;3.30;;;;;;;2.78;100.00;61103.88;5073084;28;20539;-75
2022/01/18 07:28:14;;;;;;;6.40;3.30;;;;;;;3.24;100.00;61152.75;5072192;28;20501;-76
2022/01/18 07:30:42;;;;;;;5.03;2.87;;;;;;;2.77;100.00;61097.75;5072695;28;20485;-77
2022/01/18 07:33:14;;;;;;;3.03;2.33;;;;;;;2.80;100.00;61103.47;5071439;28;20455;-75
2022/01/18 07:35:43;;;;;;;2.20;1.93;;;;;;;2.27;100.00;61050.75;5071608;28;20497;-77
2022/01/18 07:38:16;;;;;;;3.17;1.90;;;;;;;2.47;100.00;61068.94;5071962;28;20454;-74
2022/01/18 07:40:46;;;;;;;3.93;2.20;;;;;;;2.72;100.00;61094.97;5072272;28;20949;-76
2022/01/18 07:43:19;;;;;;;4.20;2.53;;;;;;;2.67;100.00;61092.69;5072180;28;20435;-74
2022/01/18 07:45:50;;;;;;;5.00;2.57;;;;;;;3.11;100.00;61136.41;5072030;28;20547;-75
2022/01/18 07:48:28;;;;;;;9.90;2.70;;;;;;;3.01;100.00;61125.78;5071663;28;20454;-74
2022/01/18 07:51:03;;;;;;;4.10;2.43;;;;;;;2.09;100.00;61029.13;5070792;28;20496;-73
2022/01/18 07:53:31;;;;;;;4.97;2.90;;;;;;;3.49;100.00;61179.34;5072575;28;20492;-75
2022/01/18 07:55:59;;;;;;;4.67;2.30;;;;;;;3.48;100.00;61173.25;5071925;28;20860;-76
2022/01/18 07:58:32;;;;;;;5.17;1.73;;;;;;;3.31;100.00;61155.16;5071804;28;20997;-75
2022/01/18 08:01:01;;;;;;;3.97;2.00;;;;;;;3.40;100.00;61164.75;5072302;28;20443;-77
2022/01/18 08:03:30;;;;;;;5.70;2.30;;;;;;;3.00;100.00;61127.25;5072014;28;20435;-76
2022/01/18 08:06:00;;;;;;;4.27;2.17;;;;;;;2.71;100.00;61093.91;5072216;28;20438;-75
2022/01/18 08:08:29;;;;;;;11.17;2.43;;;;;;;2.43;100.00;61062.72;5071789;28;20805;-77
2022/01/18 08:10:56;;;;;;;5.83;2.40;;;;;;;1.68;100.00;60988.09;5072661;28;20482;-77
2022/01/18 08:13:36;;;;;;;5.07;2.60;;;;;;;2.09;100.00;61026.59;5074762;28;20485;-77
2022/01/18 08:16:23;;;;;;;5.10;2.13;;;;;;;1.91;100.00;61012.53;5074263;28;20540;-74
2022/01/18 08:18:55;;;;;;;3.63;2.53;;;;;;;1.70;100.00;60987.72;5072455;28;20788;-77
2022/01/18 08:21:23;;;;;;;3.43;2.17;;;;;;;1.77;100.00;60997.66;5072733;28;20480;-75
2022/01/18 08:23:54;;;;;;;8.47;4.33;;;;;;;1.11;100.00;60927.63;5072484;28;20462;-76
2022/01/18 08:26:27;;;;;;;5.57;2.70;;;;;;;0.99;100.00;60915.41;5072612;28;20458;-75
2022/01/18 08:28:55;;;;;;;3.80;2.10;;;;;;;1.49;100.00;60967.94;5072267;28;20454;-74
2022/01/18 08:31:25;;;;;;;2.80;1.83;;;;;;;-0.16;100.00;60789.06;5072099;28;20926;-76
2022/01/18 08:33:57;;;;;;;13.10;4.07;;;;;;;1.23;100.00;60935.34;5072146;28;20504;-77
2022/01/18 08:36:34;;;;;;;4.10;2.47;;;;;;;1.33;100.00;60948.47;5072384;28;20797;-77
2022/01/18 08:39:02;;;;;;;2.23;1.87;;;;;;;0.11;100.00;60822.13;5072474;28;20443;-74
2022/01/18 08:41:33;;;;;;;1.83;1.50;;;;;;;1.55;100.00;60969.28;5071923;28;20507;-77
2022/01/18 08:44:17;;;;;;;3.07;1.77;;;;;;;1.40;100.00;60958.38;5071849;28;20438;-74
2022/01/18 08:46:46;;;;;;;3.50;1.90;;;;;;;1.35;100.00;60948.59;5071643;28;20434;-74
2022/01/18 08:49:18;;;;;;;3.27;2.17;;;;;;;1.64;100.00;60983.84;5071689;28;20446;-75
2022/01/18 08:51:47;;;;;;;3.40;2.20;;;;;;;1.76;100.00;60994.06;5071045;28;20497;-76
2022/01/18 08:54:14;;;;;;;3.13;2.43;;;;;;;0.52;100.00;60863.63;5069844;28;20434;-76
2022/01/18 08:56:42;;;;;;;4.27;2.57;;;;;;;1.76;100.00;60996.59;5071589;28;20777;-74
2022/01/18 08:59:11;;;;;;;5.00;2.50;;;;;;;1.74;100.00;60989.44;5071544;28;20843;-75
2022/01/18 09:01:38;;;;;;;4.47;2.23;;;;;;;1.82;100.00;60997.94;5073566;28;20448;-77
2022/01/18 09:04:07;;;;;;;3.67;2.10;;;;;;;1.42;100.00;60955.50;5074447;28;21030;-76
2022/01/18 09:06:38;;;;;;;3.73;2.30;;;;;;;1.85;100.00;61001.13;5074779;28;20821;-76
2022/01/18 09:09:07;;;;;;;11.07;5.83;;;;;;;1.16;100.00;60930.41;5074735;28;20441;-76
2022/01/18 09:11:36;;;;;;;3.53;2.20;;;;;;;1.93;100.00;61009.63;5075272;28;20877;-76
2022/01/18 09:14:08;;;;;;;9.00;2.13;;;;;;;2.00;100.00;61017.03;5073545;28;20499;-74
2022/01/18 09:16:36;;;;;;;8.13;2.70;;;;;;;0.53;100.00;60866.63;5074643;28;20427;-74
2022/01/18 09:19:05;;;;;;;4.20;1.83;;;;;;;2.13;100.00;61033.38;5073186;28;20446;-76
2022/01/18 09:21:33;;;;;;;2.83;2.00;;;;;;;1.23;100.00;60935.34;5074876;28;20480;-77
2022/01/18 09:24:30;;;;;;;5.53;3.00;;;;;;;2.14;100.00;61036.94;5073532;28;20981;-77
2022/01/18 09:27:08;;;;;;;5.37;2.47;;;;;;;2.27;100.00;61050.75;5075150;28;20458;-74
2022/01/18 09:29:35;;;;;;;3.10;2.03;;;;;;;2.40;100.00;61061.50;5074227;28;20949;-76
2022/01/18 09:34:49;;;;;;;6.53;3.17;;;;;;;2.52;100.00;61074.78;5074771;28;20882;-77
2022/01/18 09:37:21;;;;;;;4.07;2.87;;;;;;;2.33;100.00;61057.13;5074074;28;20992;-77
2022/01/18 09:39:48;;;;;;;7.03;2.17;;;;;;;1.47;100.00;60973.88;5074477;28;20438;-77
2022/01/18 09:42:31;;;;;;;4.53;2.40;;;;;;;2.15;100.00;61032.97;5074127;28;20446;-78
2022/01/18 09:44:59;;;;;;;5.07;2.73;;;;;;;0.46;100.00;60862.28;5074210;28;20458;-75
2022/01/18 09:47:52;;;;;;;4.30;2.57;;;;;;;2.13;100.00;61035.88;5074153;28;20434;-77
2022/01/18 09:50:27;;;;;;;4.33;2.27;;;;;;;1.11;100.00;60923.13;5072920;28;20474;-76
2022/01/18 09:52:58;;;;;;;6.00;2.37;;;;;;;2.26;100.00;61049.69;5074212;28;20438;-78
2022/01/18 09:55:28;;;;;;;5.53;2.80;;;;;;;2.11;100.00;61033.75;5072976;28;20543;-76
2022/01/18 09:58:02;;;;;;;4.37;2.53;;;;;;;2.18;100.00;61041.19;5074016;28;20442;-77
2022/01/18 10:00:33;;;;;;;4.87;2.23;;;;;;;2.26;100.00;61049.13;5072772;28;20581;-77
2022/01/18 10:03:02;;;;;;;6.07;2.43;;;;;;;2.29;100.00;61047.84;5073463;28;20536;-75
2022/01/18 10:05:38;;;;;;;4.60;2.23;;;;;;;2.31;100.00;61054.47;5073909;28;20526;-76
2022/01/18 10:08:10;;;;;;;8.40;2.60;;;;;;;2.20;100.00;61042.78;5074327;28;20573;-76
2022/01/18 10:10:53;;;;;;;1.97;1.53;;;;;;;2.38;100.00;61057.41;5073541;28;20485;-76
2022/01/18 10:13:25;;;;;;;9.03;2.63;;;;;;;2.45;100.00;61066.81;5073024;28;20465;-77
2022/01/18 10:16:00;;;;;;;6.27;2.43;;;;;;;2.08;100.00;61030.56;5073890;28;20454;-77
2022/01/18 10:18:43;;;;;;;5.33;2.73;;;;;;;2.42;100.00;61066.66;5073973;28;20533;-75
2022/01/18 10:21:10;;;;;;;7.57;1.83;;;;;;;2.44;100.00;61063.78;5074950;28;20442;-75
2022/01/18 10:23:48;;;;;;;5.77;2.63;;;;;;;0.97;100.00;60912.78;5076794;28;20476;-78
2022/01/18 10:26:26;;;;;;;5.73;2.93;;;;;;;2.53;100.00;61078.38;5073939;28;20442;-75
2022/01/18 10:29:06;;;;;;;4.50;2.93;;;;;;;2.82;100.00;61105.59;5073382;28;20447;-74
2022/01/18 10:31:42;;;;;;;2.80;1.83;;;;;;;2.94;100.00;61121.38;5073372;28;20539;-77
2022/01/18 10:34:23;;;;;;;4.17;2.40;;;;;;;3.18;100.00;61141.34;5073753;28;20426;-77
2022/01/18 10:37:29;;;;;;;5.50;3.00;;;;;;;3.52;100.00;61182.53;5072114;28;20484;-77
2022/01/18 10:39:58;;;;;;;4.50;1.83;;;;;;;3.81;100.00;61213.38;5072745;28;20462;-77
2022/01/18 10:42:40;;;;;;;5.83;2.03;;;;;;;3.90;100.00;61217.91;5072756;28;20447;-76
2022/01/18 10:45:23;;;;;;;3.67;2.40;;;;;;;4.13;100.00;61247.41;5072846;28;20504;-77
2022/01/18 10:48:04;;;;;;;5.17;2.33;;;;;;;4.73;100.00;61307.72;5072741;28;20930;-77
2022/01/18 10:50:49;;;;;;;5.17;2.17;;;;;;;5.20;100.00;61360.28;5072743;28;20915;-78
2022/01/18 10:53:24;;;;;;;4.93;2.63;;;;;;;4.62;100.00;61296.00;5073176;28;20469;-77
2022/01/18 10:56:13;;;;;;;5.77;2.63;;;;;;;5.94;100.00;61439.16;5072820;28;20446;-76
2022/01/18 10:58:52;;;;;;;4.77;2.53;;;;;;;6.59;100.00;61507.97;5073664;28;20864;-79
2022/01/18 11:01:25;;;;;;;5.40;2.77;;;;;;;6.44;100.00;61501.56;5072697;28;20529;-77
2022/01/18 11:04:12;;;;;;;4.83;2.40;;;;;;;7.11;100.00;61562.94;5072715;28;20455;-76
2022/01/18 11:06:44;;;;;;;4.47;2.60;;;;;;;6.08;100.00;61450.50;5072971;28;20878;-77
2022/01/18 11:09:14;;;;;;;16.43;2.63;;;;;;;6.35;100.00;61471.72;5072579;28;20457;-77
2022/01/18 11:11:49;;;;;;;4.23;1.87;;;;;;;6.40;100.00;61487.16;5073136;28;20510;-77
2022/01/18 11:14:25;;;;;;;3.30;2.13;;;;;;;6.78;100.00;61525.19;5072225;28;20442;-75
2022/01/18 11:17:22;;;;;;;9.87;2.30;;;;;;;6.77;100.00;61521.56;5072322;28;20815;-76
2022/01/18 11:19:57;;;;;;;6.80;2.97;;;;;;;7.77;100.00;61632.88;5071645;28;20450;-76
2022/01/18 11:22:33;;;;;;;6.07;3.50;;;;;;;6.32;100.00;61478.63;5070910;28;20450;-77
2022/01/18 11:25:10;;;;;;;10.83;5.43;;;;;;;8.22;100.00;61680.41;5072408;28;20437;-76
2022/01/18 11:27:46;;;;;;;5.23;3.00;;;;;;;7.33;100.00;61591.47;5072682;28;20526;-79
2022/01/18 11:30:24;;;;;;;5.23;2.97;;;;;;;8.20;100.00;61678.28;5072456;28;20462;-76
2022/01/18 11:33:27;;;;;;;5.77;3.00;;;;;;;7.71;100.00;61623.41;5072532;28;20492;-77
2022/01/18 11:38:50;;;;;;;9.67;2.97;;;;;;;6.60;100.00;61508.50;5070596;28;20438;-76
2022/01/18 11:41:24;;;;;;;4.13;2.20;;;;;;;7.88;100.00;61641.56;5072405;28;21098;-77
2022/01/18 11:43:56;;;;;;;4.73;2.30;;;;;;;5.91;100.00;61435.97;5072020;28;20521;-76
2022/01/18 11:49:21;;;;;;;6.13;2.30;;;;;;;7.36;100.00;61584.56;5071262;28;20446;-76
2022/01/18 11:51:55;;;;;;;2.90;1.80;;;;;;;6.37;100.00;61478.91;5072331;28;20497;-77
2022/01/18 11:54:32;;;;;;;6.73;2.47;;;;;;;5.40;100.00;61384.13;5072132;28;20434;-78
2022/01/18 11:57:01;;;;;;;4.20;1.93;;;;;;;4.82;100.00;61325.38;5072247;28;20492;-76
2022/01/18 11:59:40;;;;;;;3.90;2.00;;;;;;;5.85;100.00;61429.59;5072246;28;20788;-77
2022/01/18 12:02:14;;;;;;;3.27;2.00;;;;;;;6.38;100.00;61485.03;5072108;28;21052;-75
2022/01/18 12:13:44;;;;;;;3.77;2.00;;;;;;;7.04;100.00;61552.94;5071433;28;20442;-77
2022/01/18 12:16:26;;;;;;;3.10;1.87;;;;;;;6.57;100.00;61510.91;5072016;28;20439;-78
2022/01/18 12:19:09;;;;;;;4.90;2.23;;;;;;;6.22;100.00;61467.97;5071861;28;20808;-76
2022/01/18 12:24:46;;;;;;;5.80;2.50;;;;;;;7.73;100.00;61628.06;5072721;28;20448;-78
2022/01/18 12:27:32;;;;;;;8.07;2.30;;;;;;;7.87;100.00;61643.56;5079259;28;20450;-77
2022/01/18 12:30:38;;;;;;;4.43;2.37;;;;;;;7.45;100.00;61594.16;5072127;28;20427;-76
2022/01/18 12:36:39;;;;;;;4.27;3.00;;;;;;;7.62;100.00;61614.84;5074598;28;20481;-75
2022/01/18 12:42:01;;;;;;;4.70;2.27;;;;;;;8.26;100.00;61684.72;5076309;28;20438;-76
2022/01/18 12:44:42;;;;;;;2.90;2.30;;;;;;;8.79;100.00;61741.38;5075301;28;20461;-78
2022/01/18 12:47:11;;;;;;;7.00;2.07;;;;;;;7.86;100.00;61641.94;5074818;28;20450;-76
2022/01/18 12:50:00;;;;;;;7.00;2.47;;;;;;;7.36;100.00;61584.56;5075187;28;20447;-77
2022/01/18 13:04:27;;;;;;;3.33;2.10;;;;;;;6.52;100.00;61500.50;5075368;28;21032;-78
2022/01/18 13:09:57;;;;;;;6.90;2.53;;;;;;;8.04;100.00;61658.66;5074879;28;20434;-77
2022/01/18 13:12:39;;;;;;;3.67;2.40;;;;;;;7.27;100.00;61577.47;5074580;28;20904;-78
2022/01/18 13:24:49;;;;;;;6.40;2.43;;;;;;;8.66;96.97;61724.94;5074920;28;20484;-77
2022/01/18 13:27:27;;;;;;;6.10;2.40;;;;;;;8.57;95.31;61717.31;5074754;28;20938;-78
2022/01/18 13:30:17;;;;;;;9.83;1.90;;;;;;;8.64;91.65;61725.34;5074446;28;20438;-75
2022/01/18 13:35:33;;;;;;;5.67;2.30;;;;;;;7.06;98.45;61555.06;5074076;28;20474;-77
2022/01/18 13:40:48;;;;;;;3.23;2.30;;;;;;;3.94;100.00;61224.69;5074060;28;20438;-75
2022/01/18 13:43:16;;;;;;;7.43;2.77;;;;;;;4.85;100.00;61323.53;5074263;28;20858;-78
2022/01/18 13:45:48;;;;;;;4.63;2.60;;;;;;;5.69;100.00;61411.97;5073511;28;20574;-77
2022/01/18 13:51:34;;;;;;;3.93;2.00;;;;;;;3.56;100.00;61181.22;5073895;28;20870;-77
2022/01/18 13:54:05;;;;;;;8.73;2.70;;;;;;;4.68;100.00;61302.91;5073745;28;20450;-77
2022/01/18 13:56:34;;;;;;;6.37;3.00;;;;;;;3.45;100.00;61170.03;5074361;28;20458;-76
2022/01/18 13:59:04;;;;;;;2.40;1.67;;;;;;;3.39;100.00;61168.69;5074044;28;20854;-75
2022/01/18 14:01:41;;;;;;;5.97;2.83;;;;;;;2.92;100.00;61121.25;5073749;28;20452;-77
2022/01/18 14:04:23;;;;;;;7.03;2.10;;;;;;;2.96;100.00;61123.00;5073850;28;20434;-77
2022/01/18 14:07:02;;;;;;;8.73;2.20;;;;;;;2.55;100.00;61077.97;5073786;28;20492;-76
2022/01/18 14:09:37;;;;;;;6.17;2.73;;;;;;;2.70;100.00;61095.88;5073928;28;20442;-77
2022/01/18 14:12:14;;;;;;;4.57;2.67;;;;;;;3.23;100.00;61147.19;5074079;28;20478;-76
2022/01/18 14:14:44;;;;;;;7.57;2.87;;;;;;;3.57;100.00;61185.31;5073315;28;20454;-77
2022/01/18 14:17:17;;;;;;;6.10;2.43;;;;;;;3.15;100.00;61140.66;5073587;28;20618;-74
2022/01/18 14:19:47;;;;;;;6.70;2.50;;;;;;;1.86;100.00;61001.66;5074245;28;20445;-76